createdAt,value
2023-09-17T00:02:02.361Z,12.57
2023-09-17T00:07:05.026Z,13.27
2023-09-17T00:12:07.834Z,13.10
2023-09-17T00:17:10.572Z,13.27
2023-09-17T00:22:15.869Z,13.07
2023-09-17T00:27:18.509Z,13.80
2023-09-17T00:32:20.999Z,14.80
2023-09-17T00:37:24.096Z,15.00
2023-09-17T00:42:26.769Z,14.10
2023-09-17T00:47:30.129Z,13.47
2023-09-17T00:52:35.262Z,14.87
2023-09-17T00:57:40.739Z,13.53
2023-09-17T01:02:44.197Z,13.67
2023-09-17T01:07:48.428Z,13.27
2023-09-17T01:12:51.241Z,13.20
2023-09-17T01:17:54.454Z,13.40
2023-09-17T01:23:18.228Z,14.10
2023-09-17T01:28:22.602Z,14.10
2023-09-17T01:33:25.235Z,12.77
2023-09-17T01:38:33.698Z,12.80
2023-09-17T01:43:39.401Z,13.23
2023-09-17T01:48:44.046Z,13.23
2023-09-17T01:53:48.022Z,12.03
2023-09-17T01:58:51.213Z,14.90
2023-09-17T02:03:54.201Z,14.10
2023-09-17T02:08:57.027Z,13.87
2023-09-17T02:13:59.782Z,13.87
2023-09-17T02:19:02.332Z,13.53
2023-09-17T02:24:05.371Z,13.27
2023-09-17T02:29:08.206Z,12.83
2023-09-17T02:34:10.731Z,14.07
2023-09-17T02:39:14.860Z,13.87
2023-09-17T02:44:21.632Z,13.80
2023-09-17T02:49:24.278Z,12.87
2023-09-17T02:54:26.975Z,13.30
2023-09-17T02:59:29.780Z,12.57
2023-09-17T03:04:32.420Z,12.40
2023-09-17T03:09:35.304Z,14.70
2023-09-17T03:14:38.156Z,13.60
2023-09-17T03:19:43.741Z,15.37
2023-09-17T03:24:57.991Z,13.43
2023-09-17T03:30:07.204Z,12.20
2023-09-17T03:35:10.297Z,12.73
2023-09-17T03:40:14.382Z,13.20
2023-09-17T03:45:19.222Z,13.33
2023-09-17T03:50:22.882Z,12.93
2023-09-17T03:55:26.080Z,12.93
2023-09-17T04:00:29.779Z,12.73
2023-09-17T04:05:32.614Z,12.87
2023-09-17T04:10:35.214Z,13.50
2023-09-17T04:15:37.817Z,12.57
2023-09-17T04:20:40.304Z,13.23
2023-09-17T04:25:42.890Z,12.80
2023-09-17T04:30:45.520Z,12.07
2023-09-17T04:35:48.099Z,13.23
2023-09-17T04:40:50.634Z,13.87
2023-09-17T04:45:53.934Z,16.50
2023-09-17T04:51:01.722Z,19.97
2023-09-17T04:56:04.508Z,17.67
2023-09-17T05:01:11.448Z,16.53
2023-09-17T05:06:14.646Z,14.93
2023-09-17T05:11:17.251Z,14.90
2023-09-17T05:16:21.508Z,15.53
2023-09-17T05:21:25.801Z,14.40
2023-09-17T05:26:28.815Z,14.03
2023-09-17T05:31:34.153Z,15.50
2023-09-17T05:36:37.360Z,17.97
2023-09-17T05:41:40.699Z,18.27
2023-09-17T05:46:43.484Z,16.80
2023-09-17T05:51:46.233Z,16.73
2023-09-17T05:56:49.164Z,16.17
2023-09-17T06:01:52.946Z,16.27
2023-09-17T06:06:55.573Z,16.90
2023-09-17T06:11:58.573Z,17.97
2023-09-17T06:17:01.192Z,17.13
2023-09-17T06:22:03.976Z,16.73
2023-09-17T06:27:06.658Z,16.80
2023-09-17T06:32:09.443Z,16.53
2023-09-17T06:37:12.545Z,15.53
2023-09-17T06:42:15.327Z,15.00
2023-09-17T06:47:18.129Z,14.20
2023-09-17T06:52:22.665Z,15.70
2023-09-17T06:57:28.705Z,13.83
2023-09-17T07:02:33.851Z,14.27
2023-09-17T07:07:42.398Z,13.43
2023-09-17T07:12:45.805Z,12.77
2023-09-17T07:17:49.645Z,12.13
2023-09-17T07:22:52.387Z,10.75
2023-09-17T07:27:57.899Z,10.43
2023-09-17T07:33:02.237Z,10.77
2023-09-17T07:38:05.213Z,9.70
2023-09-17T07:43:07.947Z,9.02
2023-09-17T07:48:11.010Z,9.20
2023-09-17T07:53:13.651Z,8.32
2023-09-17T07:58:16.239Z,8.57
2023-09-17T08:03:19.623Z,9.30
2023-09-17T08:08:22.374Z,8.65
2023-09-17T08:13:25.109Z,8.50
2023-09-17T08:18:27.724Z,9.80
2023-09-17T08:23:30.221Z,8.32
2023-09-17T08:28:32.790Z,8.65
2023-09-17T08:33:35.321Z,8.13
2023-09-17T08:38:38.010Z,6.72
2023-09-17T08:43:45.808Z,6.95
2023-09-17T08:48:48.973Z,6.80
2023-09-17T08:53:58.051Z,7.55
2023-09-17T08:59:05.267Z,6.20
2023-09-17T09:04:11.086Z,5.75
2023-09-17T09:09:16.102Z,5.90
2023-09-17T09:14:19.116Z,4.60
2023-09-17T09:19:21.911Z,4.47
2023-09-17T09:24:25.663Z,4.93
2023-09-17T09:29:31.303Z,4.47
2023-09-17T09:35:29.243Z,4.40
2023-09-17T09:40:36.257Z,5.10
2023-09-17T09:45:39.429Z,4.78
2023-09-17T09:50:43.652Z,5.03
2023-09-17T09:55:48.086Z,4.55
2023-09-17T10:00:50.969Z,4.45
2023-09-17T10:05:53.694Z,4.13
2023-09-17T10:10:57.109Z,4.50
2023-09-17T10:16:01.037Z,4.47
2023-09-17T10:21:07.362Z,4.40
2023-09-17T10:26:11.529Z,4.57
2023-09-17T10:31:17.041Z,4.50
2023-09-17T10:36:20.270Z,4.60
2023-09-17T10:41:24.190Z,4.15
2023-09-17T10:46:29.776Z,4.28
2023-09-17T10:51:33.152Z,4.00
2023-09-17T10:56:36.216Z,4.20
2023-09-17T11:01:40.281Z,8.70
2023-09-17T11:06:45.980Z,4.13
2023-09-17T11:11:48.834Z,5.03
2023-09-17T11:16:51.537Z,4.07
2023-09-17T11:22:06.008Z,7.00
2023-09-17T11:27:10.235Z,9.93
2023-09-17T11:32:20.564Z,5.13
2023-09-17T11:37:23.379Z,4.03
2023-09-17T11:42:27.306Z,4.38
2023-09-17T11:47:30.085Z,4.63
2023-09-17T11:52:34.430Z,4.18
2023-09-17T11:57:37.031Z,3.92
2023-09-17T12:02:39.781Z,3.75
2023-09-17T12:07:54.897Z,3.70
2023-09-17T12:13:00.746Z,4.50
2023-09-17T12:18:04.118Z,3.40
2023-09-17T12:23:14.297Z,3.40
2023-09-17T12:28:16.877Z,4.30
2023-09-17T12:33:20.003Z,3.55
2023-09-17T12:38:22.504Z,5.78
2023-09-17T12:43:25.050Z,3.40
2023-09-17T12:48:27.637Z,4.30
2023-09-17T12:53:30.446Z,3.05
2023-09-17T12:58:33.955Z,4.05
2023-09-17T13:03:37.098Z,3.83
2023-09-17T13:08:40.577Z,3.70
2023-09-17T13:13:47.176Z,4.50
2023-09-17T13:18:51.190Z,3.72
2023-09-17T13:23:54.124Z,3.67
2023-09-17T13:28:56.912Z,3.50
2023-09-17T13:33:59.979Z,3.20
2023-09-17T13:39:03.144Z,4.40
2023-09-17T13:44:05.998Z,2.88
2023-09-17T13:49:08.675Z,5.40
2023-09-17T13:54:11.428Z,3.45
2023-09-17T13:59:14.014Z,8.10
2023-09-17T14:04:17.064Z,3.70
2023-09-17T14:09:19.873Z,5.63
2023-09-17T14:14:58.269Z,3.17
2023-09-17T14:20:01.164Z,3.50
2023-09-17T14:25:05.955Z,3.00
2023-09-17T14:30:13.454Z,3.70
2023-09-17T14:35:16.047Z,3.40
2023-09-17T14:40:18.594Z,4.60
2023-09-17T14:45:21.174Z,4.60
2023-09-17T14:50:24.662Z,3.60
2023-09-17T14:55:27.190Z,3.20
2023-09-17T15:00:29.710Z,6.57
2023-09-17T15:05:32.475Z,3.70
2023-09-17T15:10:35.018Z,3.00
2023-09-17T15:15:37.543Z,4.72
2023-09-17T15:20:40.391Z,3.40
2023-09-17T15:25:43.005Z,3.25
2023-09-17T15:30:47.036Z,4.28
2023-09-17T15:35:49.599Z,3.58
2023-09-17T15:40:52.944Z,3.67
2023-09-17T15:45:55.473Z,3.30
2023-09-17T15:51:02.857Z,3.70
2023-09-17T15:56:05.699Z,3.75
2023-09-17T16:01:08.265Z,4.10
2023-09-17T16:06:11.568Z,4.13
2023-09-17T16:11:14.108Z,4.13
2023-09-17T16:16:16.731Z,3.67
2023-09-17T16:21:19.325Z,4.18
2023-09-17T16:26:21.890Z,3.72
2023-09-17T16:31:24.454Z,4.20
2023-09-17T16:36:26.971Z,5.10
2023-09-17T16:41:29.518Z,5.65
2023-09-17T16:46:32.012Z,11.43
2023-09-17T16:51:37.819Z,15.63
2023-09-17T16:56:42.340Z,10.32
2023-09-17T17:01:45.145Z,14.27
2023-09-17T17:06:48.170Z,19.60
2023-09-17T17:11:51.636Z,18.83
2023-09-17T17:16:56.680Z,11.25
2023-09-17T17:21:59.426Z,9.90
2023-09-17T17:27:02.041Z,8.23
2023-09-17T17:32:04.822Z,7.47
2023-09-17T17:37:07.404Z,6.20
2023-09-17T17:42:09.901Z,6.40
2023-09-17T17:47:12.508Z,6.57
2023-09-17T17:52:15.109Z,6.78
2023-09-17T17:57:21.667Z,7.88
2023-09-17T18:02:25.639Z,9.35
2023-09-17T18:07:28.523Z,10.23
2023-09-17T18:12:31.132Z,9.80
2023-09-17T18:17:33.841Z,13.07
2023-09-17T18:22:36.451Z,13.40
2023-09-17T18:27:39.371Z,11.02
2023-09-17T18:32:42.033Z,13.68
2023-09-17T18:37:44.761Z,14.35
2023-09-17T18:42:47.431Z,13.15
2023-09-17T18:47:49.961Z,14.38
2023-09-17T18:52:52.523Z,12.63
2023-09-17T18:57:55.463Z,12.60
2023-09-17T19:02:58.117Z,13.85
2023-09-17T19:08:01.023Z,14.82
2023-09-17T19:13:04.279Z,12.45
2023-09-17T19:18:06.955Z,12.43
2023-09-17T19:23:09.643Z,12.30
2023-09-17T19:28:12.315Z,12.80
2023-09-17T19:33:15.037Z,12.88
2023-09-17T19:38:17.725Z,13.60
2023-09-17T19:43:22.012Z,12.82
2023-09-17T19:48:25.122Z,13.57
2023-09-17T19:53:27.755Z,11.88
2023-09-17T19:58:30.366Z,13.07
2023-09-17T20:03:33.131Z,15.18
2023-09-17T20:08:35.858Z,14.48
2023-09-17T20:13:38.436Z,14.10
2023-09-17T20:18:42.975Z,14.50
2023-09-17T20:23:45.816Z,14.10
2023-09-17T20:28:49.857Z,13.87
2023-09-17T20:33:52.433Z,13.40
2023-09-17T20:38:55.202Z,13.33
2023-09-17T20:43:57.920Z,14.07
2023-09-17T20:49:01.077Z,13.17
2023-09-17T20:54:04.099Z,14.83
2023-09-17T20:59:06.752Z,15.70
2023-09-17T21:04:10.259Z,14.47
2023-09-17T21:09:29.290Z,15.37
2023-09-17T21:14:31.985Z,15.10
2023-09-17T21:19:35.071Z,14.77
2023-09-17T21:24:37.771Z,13.27
2023-09-17T21:29:40.379Z,14.50
2023-09-17T21:34:43.423Z,13.47
2023-09-17T21:39:45.912Z,14.37
2023-09-17T21:44:48.374Z,12.70
2023-09-17T21:49:50.991Z,13.50
2023-09-17T21:54:53.587Z,12.40
2023-09-17T21:59:56.200Z,13.37
2023-09-17T22:04:58.846Z,12.23
2023-09-17T22:10:01.754Z,11.37
2023-09-17T22:15:05.649Z,12.00
2023-09-17T22:20:20.002Z,11.63
2023-09-17T22:25:23.440Z,11.87
2023-09-17T22:30:29.143Z,11.70
2023-09-17T22:35:31.637Z,11.77
2023-09-17T22:40:34.240Z,11.63
2023-09-17T22:45:40.084Z,11.47
2023-09-17T22:50:42.616Z,11.83
2023-09-17T22:55:45.194Z,12.67
2023-09-17T23:00:48.036Z,11.37
2023-09-17T23:05:50.644Z,10.97
2023-09-17T23:11:01.403Z,10.07
2023-09-17T23:16:05.597Z,10.80
2023-09-17T23:21:09.859Z,10.20
2023-09-17T23:26:18.592Z,11.63
2023-09-17T23:31:21.254Z,10.80
2023-09-17T23:36:25.429Z,10.77
2023-09-17T23:41:28.131Z,10.00
2023-09-17T23:46:33.199Z,10.83
2023-09-17T23:51:35.795Z,10.40
2023-09-17T23:56:38.485Z,10.80
